ESMQ

Kalmar Airport

Sweden
TAF ESMQ 192030Z 1921/1923 06008KT 9999 BKN025
Issued Valid From Valid To
Nov-19 @ 20:30 UTC
(2 hours ago)
Nov-19 @ 21:00 UTC
(an hour ago)
Nov-19 @ 23:00 UTC
(in 53 minutes)
Nov-19 @ 21:00 to Nov-19 @ 23:00
TAF ESMQ 192030Z 1921/1923 06008KT 9999 BKN025
Wind Visibility Clouds
60° at 8 knots 10,000+ meters
  • Broken at 2,500' AGL
TAF ESMQ 192030Z 1921/1923 06008KT 9999 BKN025
Issued Nov-19 @ 20:30 UTC
(2 hours ago)
Valid From Nov-19 @ 21:00 UTC
(an hour ago)
Valid To Nov-19 @ 23:00 UTC
(in 53 minutes)
Nov-19 @ 21:00 - Nov-19 @ 23:00
Wind Visibility
60° at 8 knots 10,000+ meters
Clouds
  • Broken at 2,500' AGL